»·PEaware :: N265K KSEE-KNYL

N265K :: KSEE-KNYL

FLIGHT INFORMATION

Flight Status: Arrived
Operator: Privately registered:
United States
More flights under this callsign
Pilot: Tytus A. (10113)
Aircraft: CESSNA 210 CENTURION
(C210)
More flights by this aircraft type
Origin: KSEE Gillespie
United States
Destination: KNYL Yuma MCAS/Yuma Intl
United States
More flights between these airports :: More routes between these airports
Route: CANNO V66 IPL COVOK
File this flight plan on PilotEdge
Remarks: Looking for DME arc and / or a hold at some point
Altitude:
(Current/Filed)
9,000ft
Speed:
(Current/Filed)
165kts
Departed: 11-Jun-18 08:33 PM
Arrived: 11-Jun-18 09:34 PM
Distance/Time
Traveled:
120nm/1:01
Distance/Time
To Go:
Arrived

Flight Plot

Page will automatically refresh every two minutes.

Flight plan parsing failed; only flown route is shown


Map Options




Map Legend


Flown Route
Filed Route
Departure Airport
Arrival Airport
Navaid (VOR, NDB)
Fix

Horizontal Profiles

Position Reports

Time Latitude Longitude Heading Altitude Ground
Speed
11-Jun-18 20:16 32.824323 -116.970557 191 390ft 0kts
11-Jun-18 20:17 32.824322 -116.970557 191 390ft 0kts
11-Jun-18 20:18 32.824322 -116.970558 191 390ft 0kts
11-Jun-18 20:19 32.824321 -116.970558 191 390ft 0kts
11-Jun-18 20:20 32.824320 -116.970558 191 390ft 0kts
11-Jun-18 20:21 32.824320 -116.970558 191 390ft 0kts
11-Jun-18 20:22 32.824319 -116.970558 191 390ft 0kts
11-Jun-18 20:23 32.824318 -116.970558 192 390ft 0kts
11-Jun-18 20:24 32.824317 -116.970559 192 390ft 0kts
11-Jun-18 20:25 32.824317 -116.970559 192 390ft 0kts
11-Jun-18 20:26 32.824316 -116.970559 192 390ft 0kts
11-Jun-18 20:27 32.824315 -116.970559 192 390ft 0kts
11-Jun-18 20:28 32.824314 -116.970559 192 390ft 0kts
11-Jun-18 20:29 32.824215 -116.970201 54 390ft 4kts
11-Jun-18 20:30 32.824786 -116.965438 48 390ft 12kts
11-Jun-18 20:31 32.825235 -116.965284 7 390ft 0kts
11-Jun-18 20:32 32.826780 -116.966282 287 390ft 36kts
11-Jun-18 20:33 32.838552 -116.989965 346 1176ft 107kts
11-Jun-18 20:34 32.869043 -116.990486 354 2176ft 110kts
11-Jun-18 20:35 32.898763 -116.991997 357 3187ft 105kts
11-Jun-18 20:36 32.928749 -116.993736 354 4122ft 107kts
11-Jun-18 20:37 32.958572 -116.988832 45 4928ft 124kts
11-Jun-18 20:38 32.953721 -116.953065 135 5917ft 115kts
11-Jun-18 20:39 32.930517 -116.925702 139 6848ft 118kts
11-Jun-18 20:40 32.907025 -116.897979 136 7752ft 120kts
11-Jun-18 20:41 32.882051 -116.871036 137 8624ft 122kts
11-Jun-18 20:42 32.854776 -116.841134 136 9011ft 151kts
11-Jun-18 20:43 32.823252 -116.804043 133 9005ft 165kts
11-Jun-18 20:44 32.795049 -116.761504 108 8998ft 166kts
11-Jun-18 20:45 32.784985 -116.707772 99 8993ft 166kts
11-Jun-18 20:46 32.776732 -116.653755 99 8987ft 166kts
11-Jun-18 20:47 32.771735 -116.599820 90 8980ft 164kts
11-Jun-18 20:48 32.770675 -116.545802 90 9199ft 156kts
11-Jun-18 20:49 32.769645 -116.491542 90 9272ft 177kts
11-Jun-18 20:50 32.768428 -116.431892 90 9251ft 182kts
11-Jun-18 20:51 32.767146 -116.371560 90 9235ft 183kts
11-Jun-18 20:52 32.765023 -116.311082 90 9219ft 183kts
11-Jun-18 20:53 32.763555 -116.250434 90 9203ft 183kts
11-Jun-18 20:54 32.762207 -116.189973 90 9188ft 183kts
11-Jun-18 20:55 32.763698 -116.129615 86 9173ft 183kts
11-Jun-18 20:56 32.763959 -116.069031 90 9160ft 183kts
11-Jun-18 20:57 32.762596 -116.008628 90 9149ft 183kts
11-Jun-18 20:58 32.761091 -115.947287 90 8836ft 194kts
11-Jun-18 20:59 32.759462 -115.882267 90 8188ft 198kts
11-Jun-18 21:00 32.758046 -115.816389 90 7537ft 200kts
11-Jun-18 21:01 32.756606 -115.750073 91 6880ft 200kts
11-Jun-18 21:02 32.755180 -115.695226 91 6333ft 200kts
11-Jun-18 21:03 32.753423 -115.629598 91 5677ft 199kts
11-Jun-18 21:04 32.751639 -115.564257 91 5119ft 194kts
11-Jun-18 21:05 32.749939 -115.503028 90 5105ft 181kts
11-Jun-18 21:06 32.752119 -115.433665 86 5108ft 180kts
11-Jun-18 21:07 32.753766 -115.373981 87 5108ft 180kts
11-Jun-18 21:08 32.755030 -115.314486 87 5108ft 180kts
11-Jun-18 21:09 32.756064 -115.264925 87 5108ft 180kts
11-Jun-18 21:10 32.757291 -115.205254 87 5108ft 180kts
11-Jun-18 21:11 32.758247 -115.145834 87 5109ft 180kts
11-Jun-18 21:12 32.759438 -115.086302 87 5109ft 180kts
11-Jun-18 21:13 32.760627 -115.026639 87 5109ft 180kts
11-Jun-18 21:14 32.761783 -114.967145 87 5109ft 180kts
11-Jun-18 21:15 32.763052 -114.907375 86 5053ft 183kts
11-Jun-18 21:16 32.764951 -114.847115 87 4986ft 182kts
11-Jun-18 21:17 32.765733 -114.787643 88 5016ft 180kts
11-Jun-18 21:18 32.779682 -114.744255 21 5029ft 135kts
11-Jun-18 21:19 32.812609 -114.734067 16 4922ft 122kts
11-Jun-18 21:20 32.841824 -114.711448 37 4341ft 123kts
11-Jun-18 21:21 32.864856 -114.680000 55 3756ft 128kts
11-Jun-18 21:22 32.879137 -114.641622 74 3559ft 128kts
11-Jun-18 21:23 32.884236 -114.600771 98 3576ft 123kts
11-Jun-18 21:24 32.877696 -114.561268 107 3600ft 123kts
11-Jun-18 21:25 32.862250 -114.525165 128 3550ft 124kts
11-Jun-18 21:26 32.836883 -114.493579 152 3093ft 130kts
11-Jun-18 21:27 32.805414 -114.476615 169 2941ft 122kts
11-Jun-18 21:28 32.773461 -114.472434 213 2802ft 118kts
11-Jun-18 21:29 32.752614 -114.498106 222 2628ft 100kts
11-Jun-18 21:30 32.731124 -114.521628 226 2124ft 109kts
11-Jun-18 21:31 32.709704 -114.546023 228 1649ft 109kts
11-Jun-18 21:32 32.688845 -114.570385 227 1103ft 103kts
11-Jun-18 21:33 32.669139 -114.592464 228 507ft 84kts
11-Jun-18 21:34 32.658644 -114.604153 163 219ft 0kts

Navigation Log

Ident Type
Flight plan parsing failed, navigation log unavailable